Arvada, Wyoming
Current Conditions -  °F | °C
As of 9:53 PM on Sunday 21 Dec 2014 (Local Time) from KBYG Reporting Station
Overcast Overcast  
Wind Chill: -5°   Ceiling: 7000
Heat Index:   Visibility: 10mi
Dew Point: -4°   Wind: 28mph
Humidity: 67%   Direction: 350°N
Pressure: 29.62"   Gusts: 38mph
Location:  44.65°N, 106.13°W
Report Text: KBYG 220453Z AUTO 35024G33KT 10SM SCT050 BKN070 OVC090 02/M04 A2962 RMK AO2 PK WND 33035/0416 SLP026 T00171039 $
Loading
Personal Weather Stations






























Interactive Weather Map New forecast layout! Learn more

10-Day Weather Forecast

Advertisements
Track Severe Weather on mobile